Time;durP1;ratioP1;P1;durP2;ratioP2;P2;SDS_P1;SDS_P2;PMS_P1;PMS_P2;Temp;Humidity;BMP_temperature;BMP_pressure;BME280_temperature;BME280_humidity;BME280_pressure;Samples;Min_cycle;Max_cycle;Signal;HPM_P1;HPM_P2
2023/03/20 00:00:19;;;;;;;;;;;;;;;15.24;71.27;101600.97;1272943;23;638;-66
2023/03/20 00:01:09;;;;;;;;;;;;;;;15.25;70.96;101594.63;1272789;23;662;-66
2023/03/20 00:02:00;;;;;;;;;;;;;;;15.29;69.80;101598.81;1272225;23;664;-67
2023/03/20 00:02:51;;;;;;;;;;;;;;;15.24;70.31;101603.66;1272912;23;610;-66
2023/03/20 00:03:41;;;;;;;;;;;;;;;15.22;70.91;101594.88;1272010;23;654;-68
2023/03/20 00:04:32;;;;;;;;;;;;;;;15.27;70.75;101601.63;1271918;23;642;-68
2023/03/20 00:05:23;;;;;;;;;;;;;;;15.17;68.73;101602.41;1272785;23;641;-66
2023/03/20 00:06:13;;;;;;;;;;;;;;;15.10;70.07;101591.25;1272620;23;633;-66
2023/03/20 00:07:04;;;;;;;;;;;;;;;15.15;70.94;101598.97;1272234;23;705;-67
2023/03/20 00:07:54;;;;;;;;;;;;;;;15.13;70.67;101595.53;1272951;23;665;-66
2023/03/20 00:08:45;;;;;;;;;;;;;;;15.19;71.08;101598.66;1273571;23;1893;-67
2023/03/20 00:09:36;;;;;;;;;;;;;;;15.17;68.83;101602.41;1272388;23;660;-68
2023/03/20 00:10:26;;;;;;;;;;;;;;;15.05;69.32;101597.94;1271762;23;669;-66
2023/03/20 00:11:17;;;;;;;;;;;;;;;15.08;70.88;101592.31;1272717;23;676;-67
2023/03/20 00:12:07;;;;;;;;;;;;;;;15.12;70.97;101596.50;1271293;23;759;-68
2023/03/20 00:12:59;;;;;;;;;;;;;;;15.17;70.51;101591.66;1273050;23;669;-67
2023/03/20 00:13:50;;;;;;;;;;;;;;;15.18;70.99;101591.56;1273467;23;652;-67
2023/03/20 00:14:40;;;;;;;;;;;;;;;15.19;70.76;101587.06;1273418;23;821;-67
2023/03/20 00:15:30;;;;;;;;;;;;;;;15.22;69.95;101584.16;1272602;23;618;-66
2023/03/20 00:16:21;;;;;;;;;;;;;;;15.22;71.04;101586.84;1274360;23;640;-66
2023/03/20 00:17:11;;;;;;;;;;;;;;;15.30;70.93;101589.81;1272700;23;673;-66
2023/03/20 00:18:02;;;;;;;;;;;;;;;15.29;69.80;101593.47;1273067;23;681;-67
2023/03/20 00:18:52;;;;;;;;;;;;;;;15.33;70.54;101592.28;1271976;23;622;-66
2023/03/20 00:19:43;;;;;;;;;;;;;;;15.38;70.58;101587.44;1272723;23;638;-66
2023/03/20 00:20:33;;;;;;;;;;;;;;;15.34;70.17;101585.94;1271592;23;653;-67
2023/03/20 00:21:23;;;;;;;;;;;;;;;15.31;70.32;101586.16;1272590;23;690;-67
2023/03/20 00:22:14;;;;;;;;;;;;;;;15.31;70.70;101591.53;1271942;23;666;-67
2023/03/20 00:23:04;;;;;;;;;;;;;;;15.36;70.59;101592.06;1272609;23;631;-67
2023/03/20 00:23:55;;;;;;;;;;;;;;;15.43;70.36;101587.94;1272080;23;765;-67
2023/03/20 00:24:46;;;;;;;;;;;;;;;15.49;70.56;101579.44;1272362;23;1225;-67
2023/03/20 00:25:36;;;;;;;;;;;;;;;15.50;70.48;101581.16;1272517;23;653;-67
2023/03/20 00:26:27;;;;;;;;;;;;;;;15.38;70.13;101575.81;1272643;23;630;-67
2023/03/20 00:27:17;;;;;;;;;;;;;;;15.28;70.22;101570.25;1272689;23;678;-67
2023/03/20 00:28:08;;;;;;;;;;;;;;;15.29;71.23;101577.34;1272643;23;646;-67
2023/03/20 00:28:58;;;;;;;;;;;;;;;15.31;71.19;101574.56;1274207;23;1908;-66
2023/03/20 00:29:49;;;;;;;;;;;;;;;15.35;70.93;101571.53;1272572;23;927;-66
2023/03/20 00:30:39;;;;;;;;;;;;;;;15.39;71.15;101573.03;1272686;23;614;-67
2023/03/20 00:31:30;;;;;;;;;;;;;;;15.44;71.20;101578.03;1272819;23;673;-67
2023/03/20 00:32:20;;;;;;;;;;;;;;;15.50;70.63;101580.28;1272688;23;634;-67
2023/03/20 00:33:10;;;;;;;;;;;;;;;15.48;70.60;101577.72;1272504;23;557;-66
2023/03/20 00:34:01;;;;;;;;;;;;;;;15.44;70.88;101581.59;1271964;23;708;-67
2023/03/20 00:34:53;;;;;;;;;;;;;;;15.47;70.82;101584.06;1272478;23;650;-66
2023/03/20 00:35:43;;;;;;;;;;;;;;;15.48;70.59;101583.09;1271773;23;646;-67
2023/03/20 00:36:34;;;;;;;;;;;;;;;15.50;70.68;101582.97;1272452;23;638;-67
2023/03/20 00:37:25;;;;;;;;;;;;;;;15.47;70.26;101592.09;1271604;23;638;-67
2023/03/20 00:38:15;;;;;;;;;;;;;;;15.45;70.60;101585.13;1272246;23;630;-67
2023/03/20 00:39:06;;;;;;;;;;;;;;;15.47;70.53;101584.06;1272570;23;654;-67
2023/03/20 00:39:56;;;;;;;;;;;;;;;15.43;69.79;101587.06;1272001;23;634;-67
2023/03/20 00:40:47;;;;;;;;;;;;;;;15.42;71.11;101588.03;1272735;23;662;-67
2023/03/20 00:41:37;;;;;;;;;;;;;;;15.41;70.20;101597.91;1271593;23;724;-67
2023/03/20 00:42:28;;;;;;;;;;;;;;;15.42;70.96;101599.63;1272965;23;634;-67
2023/03/20 00:43:18;;;;;;;;;;;;;;;15.40;69.84;101598.91;1273430;23;680;-66
2023/03/20 00:44:08;;;;;;;;;;;;;;;15.37;70.65;101600.97;1272481;23;637;-67
2023/03/20 00:45:01;;;;;;;;;;;;;;;15.40;70.79;101604.28;1272900;23;630;-67
2023/03/20 00:45:51;;;;;;;;;;;;;;;15.45;70.97;101602.09;1271898;23;645;-66
2023/03/20 00:46:42;;;;;;;;;;;;;;;15.49;71.01;101617.03;1272839;23;638;-67
2023/03/20 00:47:32;;;;;;;;;;;;;;;15.47;70.77;101618.97;1272736;23;660;-67
2023/03/20 00:48:22;;;;;;;;;;;;;;;15.46;70.92;101624.44;1272571;23;638;-67
2023/03/20 00:49:13;;;;;;;;;;;;;;;15.43;70.75;101617.47;1272508;23;649;-67
2023/03/20 00:50:03;;;;;;;;;;;;;;;15.33;70.68;101621.81;1272771;23;646;-67
2023/03/20 00:50:54;;;;;;;;;;;;;;;15.27;70.90;101632.97;1272801;23;669;-67
2023/03/20 00:51:44;;;;;;;;;;;;;;;15.27;70.09;101632.97;1271638;23;661;-68
2023/03/20 00:52:35;;;;;;;;;;;;;;;15.26;70.90;101633.94;1273341;23;664;-67
2023/03/20 00:53:25;;;;;;;;;;;;;;;15.31;71.05;101644.38;1272638;23;677;-67
2023/03/20 00:54:16;;;;;;;;;;;;;;;15.34;70.96;101645.00;1272608;23;689;-67
2023/03/20 00:55:06;;;;;;;;;;;;;;;15.41;70.78;101646.28;1272587;23;546;-68
2023/03/20 00:55:56;;;;;;;;;;;;;;;15.24;69.43;101636.75;1272016;23;668;-67
2023/03/20 00:56:47;;;;;;;;;;;;;;;15.27;70.94;101638.34;1274471;23;735;-68
2023/03/20 00:57:37;;;;;;;;;;;;;;;15.35;71.14;101643.19;1272601;23;669;-67
2023/03/20 00:58:28;;;;;;;;;;;;;;;15.39;70.95;101632.13;1272902;23;625;-67
2023/03/20 00:59:18;;;;;;;;;;;;;;;15.38;69.91;101638.47;1272397;23;622;-67
2023/03/20 01:00:09;;;;;;;;;;;;;;;15.38;70.49;101643.84;1272854;23;633;-67
2023/03/20 01:00:59;;;;;;;;;;;;;;;15.43;70.40;101635.41;1274433;23;658;-67
2023/03/20 01:01:50;;;;;;;;;;;;;;;15.48;70.69;101634.13;1272466;23;653;-67
2023/03/20 01:02:40;;;;;;;;;;;;;;;15.52;70.42;101615.97;1274354;23;665;-67
2023/03/20 01:03:31;;;;;;;;;;;;;;;15.51;70.41;101615.09;1272718;23;668;-67
2023/03/20 01:04:21;;;;;;;;;;;;;;;15.42;68.51;101607.69;1271259;23;677;-67
2023/03/20 01:05:11;;;;;;;;;;;;;;;15.36;70.63;101602.78;1271652;23;598;-67
2023/03/20 01:06:02;;;;;;;;;;;;;;;15.41;70.85;101602.44;1272601;23;662;-67
2023/03/20 01:06:52;;;;;;;;;;;;;;;15.45;70.83;101591.34;1272692;23;621;-67
2023/03/20 01:07:44;;;;;;;;;;;;;;;15.45;70.61;101596.72;1272910;23;650;-67
2023/03/20 01:08:34;;;;;;;;;;;;;;;15.49;70.47;101597.38;1272601;23;629;-67
2023/03/20 01:09:25;;;;;;;;;;;;;;;15.49;69.86;101606.28;1272605;23;642;-67
2023/03/20 01:10:16;;;;;;;;;;;;;;;15.35;69.67;101606.44;1274139;23;622;-67
2023/03/20 01:11:07;;;;;;;;;;;;;;;15.34;70.60;101615.47;1271936;23;712;-67
2023/03/20 01:11:57;;;;;;;;;;;;;;;15.33;69.75;101626.31;1272736;23;674;-67
2023/03/20 01:12:47;;;;;;;;;;;;;;;15.18;68.08;101639.88;1272426;23;614;-67
2023/03/20 01:13:38;;;;;;;;;;;;;;;15.15;70.73;101649.97;1272652;23;665;-67
2023/03/20 01:14:28;;;;;;;;;;;;;;;15.12;70.15;101639.47;1271570;23;614;-68
2023/03/20 01:15:19;;;;;;;;;;;;;;;15.20;70.98;101642.47;1272089;23;649;-67
2023/03/20 01:16:09;;;;;;;;;;;;;;;15.13;70.73;101633.13;1272446;23;662;-67
2023/03/20 01:17:00;;;;;;;;;;;;;;;15.15;71.42;101636.56;1271833;23;653;-67
2023/03/20 01:17:51;;;;;;;;;;;;;;;15.24;70.89;101630.50;1272696;23;665;-67
2023/03/20 01:18:42;;;;;;;;;;;;;;;15.20;70.52;101627.22;1272836;23;678;-67
2023/03/20 01:19:32;;;;;;;;;;;;;;;15.25;71.02;101629.53;1272526;23;569;-67
2023/03/20 01:20:23;;;;;;;;;;;;;;;15.32;70.60;101625.47;1272353;23;677;-67
2023/03/20 01:21:13;;;;;;;;;;;;;;;15.38;71.08;101624.16;1274500;23;666;-67
2023/03/20 01:22:03;;;;;;;;;;;;;;;15.43;70.63;101619.28;1270960;23;665;-67
2023/03/20 01:22:54;;;;;;;;;;;;;;;15.48;70.40;101625.19;1273346;23;637;-67
2023/03/20 01:23:44;;;;;;;;;;;;;;;15.50;70.42;101621.44;1273393;23;646;-67
2023/03/20 01:24:35;;;;;;;;;;;;;;;15.53;70.35;101623.91;1271539;23;1059;-66
2023/03/20 01:25:25;;;;;;;;;;;;;;;15.53;70.20;101629.28;1274177;23;607;-67
2023/03/20 01:26:16;;;;;;;;;;;;;;;15.42;68.99;101631.88;1272780;23;669;-67
2023/03/20 01:27:06;;;;;;;;;;;;;;;15.35;70.48;101633.31;1274248;23;674;-67
2023/03/20 01:27:57;;;;;;;;;;;;;;;15.35;70.94;101638.69;1272789;23;661;-67
2023/03/20 01:28:47;;;;;;;;;;;;;;;15.40;70.74;101624.91;1272736;23;1938;-67
2023/03/20 01:29:37;;;;;;;;;;;;;;;15.44;70.85;101632.63;1272434;23;677;-67
2023/03/20 01:30:28;;;;;;;;;;;;;;;15.40;70.45;101627.59;1271430;23;642;-67
2023/03/20 01:31:18;;;;;;;;;;;;;;;15.27;68.82;101631.16;1272931;23;660;-67
2023/03/20 01:32:09;;;;;;;;;;;;;;;15.19;70.44;101628.19;1273311;23;672;-67
2023/03/20 01:32:59;;;;;;;;;;;;;;;15.18;71.13;101631.84;1274216;23;665;-67
2023/03/20 01:33:50;;;;;;;;;;;;;;;15.23;71.17;101628.78;1271655;23;673;-67
2023/03/20 01:34:40;;;;;;;;;;;;;;;15.21;70.72;101636.13;1272382;23;606;-67
2023/03/20 01:35:31;;;;;;;;;;;;;;;15.22;71.39;101632.47;1272548;23;662;-67
2023/03/20 01:36:21;;;;;;;;;;;;;;;15.21;70.86;101628.06;1271894;23;701;-67
2023/03/20 01:37:12;;;;;;;;;;;;;;;15.26;71.14;101632.13;1274065;23;638;-67
2023/03/20 01:38:02;;;;;;;;;;;;;;;15.33;70.88;101629.88;1272335;23;645;-67
2023/03/20 01:38:53;;;;;;;;;;;;;;;15.36;70.98;101629.66;1272760;23;630;-67
2023/03/20 01:39:43;;;;;;;;;;;;;;;15.41;70.61;101621.22;1273558;23;672;-67
2023/03/20 01:40:34;;;;;;;;;;;;;;;15.42;70.75;101621.13;1272366;23;653;-67
2023/03/20 01:41:24;;;;;;;;;;;;;;;15.41;70.29;101613.19;1272580;23;633;-67
2023/03/20 01:42:14;;;;;;;;;;;;;;;15.39;70.73;101613.31;1272652;23;634;-67
2023/03/20 01:43:05;;;;;;;;;;;;;;;15.39;70.55;101610.63;1271400;23;621;-67
2023/03/20 01:43:55;;;;;;;;;;;;;;;15.37;69.99;101607.19;1272731;23;682;-67
2023/03/20 01:44:46;;;;;;;;;;;;;;;15.37;70.55;101606.34;1272485;23;665;-67
2023/03/20 01:45:36;;;;;;;;;;;;;;;15.40;70.85;101606.97;1272298;23;697;-67
2023/03/20 01:46:27;;;;;;;;;;;;;;;15.43;70.71;101614.78;1272554;23;642;-67
2023/03/20 01:47:17;;;;;;;;;;;;;;;15.46;70.52;101619.09;1272347;23;618;-67
2023/03/20 01:48:08;;;;;;;;;;;;;;;15.49;70.45;101624.22;1272502;23;657;-67
2023/03/20 01:48:59;;;;;;;;;;;;;;;15.50;70.59;101617.91;1273448;23;1918;-67
2023/03/20 01:49:49;;;;;;;;;;;;;;;15.52;70.48;101622.19;1271605;23;700;-67
2023/03/20 01:50:40;;;;;;;;;;;;;;;15.51;71.02;101611.56;1271835;23;638;-67
2023/03/20 01:51:31;;;;;;;;;;;;;;;15.51;70.57;101614.25;1272437;23;614;-68
2023/03/20 01:52:22;;;;;;;;;;;;;;;15.45;70.75;101614.69;1271894;23;629;-67
2023/03/20 01:53:12;;;;;;;;;;;;;;;15.47;70.52;101623.47;1272354;23;603;-67
2023/03/20 01:54:03;;;;;;;;;;;;;;;15.46;70.89;101621.75;1272521;23;642;-68
2023/03/20 01:54:53;;;;;;;;;;;;;;;15.46;70.89;101627.13;1274031;23;790;-68
2023/03/20 01:55:44;;;;;;;;;;;;;;;15.42;70.90;101622.94;1272420;23;638;-67
2023/03/20 01:56:34;;;;;;;;;;;;;;;15.41;70.76;101629.28;1272418;23;784;-67
2023/03/20 01:57:25;;;;;;;;;;;;;;;15.41;70.90;101622.09;1271877;23;685;-67
2023/03/20 01:58:15;;;;;;;;;;;;;;;15.42;70.71;101626.50;1272393;23;641;-69
2023/03/20 01:59:06;;;;;;;;;;;;;;;15.41;71.18;101622.09;1272730;23;666;-68
2023/03/20 01:59:56;;;;;;;;;;;;;;;15.42;70.14;101621.13;1271462;23;729;-68
2023/03/20 02:00:49;;;;;;;;;;;;;;;15.29;70.98;101633.72;1271125;23;677;-68
2023/03/20 02:01:40;;;;;;;;;;;;;;;15.32;71.44;101629.97;1272915;23;661;-68
2023/03/20 02:02:30;;;;;;;;;;;;;;;15.35;71.48;101624.38;1273265;23;614;-68
2023/03/20 02:03:21;;;;;;;;;;;;;;;15.37;71.11;101636.75;1272503;23;653;-68
2023/03/20 02:04:11;;;;;;;;;;;;;;;15.35;71.17;101630.63;1272053;23;622;-68
2023/03/20 02:05:02;;;;;;;;;;;;;;;15.39;71.13;101626.75;1272548;23;622;-68
2023/03/20 02:05:52;;;;;;;;;;;;;;;15.35;70.81;101617.19;1274133;23;690;-68
2023/03/20 02:06:43;;;;;;;;;;;;;;;15.30;70.69;101616.66;1272344;23;650;-68
2023/03/20 02:07:34;;;;;;;;;;;;;;;15.29;70.13;101621.16;1272499;23;642;-67
2023/03/20 02:08:25;;;;;;;;;;;;;;;15.26;71.19;101620.53;1271730;23;713;-67
2023/03/20 02:09:15;;;;;;;;;;;;;;;15.20;70.86;101626.34;1272002;23;1897;-67
2023/03/20 02:10:06;;;;;;;;;;;;;;;15.25;71.38;101614.28;1271344;23;620;-67
2023/03/20 02:10:56;;;;;;;;;;;;;;;15.32;71.44;101620.09;1272370;23;637;-67
2023/03/20 02:11:47;;;;;;;;;;;;;;;15.36;71.00;101613.53;1272334;23;575;-67
2023/03/20 02:12:37;;;;;;;;;;;;;;;15.40;70.75;101608.81;1273991;23;621;-67
2023/03/20 02:13:27;;;;;;;;;;;;;;;15.44;70.49;101610.28;1271392;23;607;-67
2023/03/20 02:14:18;;;;;;;;;;;;;;;15.47;70.54;101612.75;1272364;23;630;-67
2023/03/20 02:15:08;;;;;;;;;;;;;;;15.49;70.65;101600.06;1274114;23;641;-67
2023/03/20 02:15:59;;;;;;;;;;;;;;;15.45;70.78;101606.63;1271855;23;658;-68
2023/03/20 02:16:49;;;;;;;;;;;;;;;15.46;70.86;101600.28;1271724;23;654;-67
2023/03/20 02:17:41;;;;;;;;;;;;;;;15.47;70.41;101592.09;1271829;23;673;-68
2023/03/20 02:18:31;;;;;;;;;;;;;;;15.48;70.86;101596.50;1272505;23;649;-67
2023/03/20 02:19:22;;;;;;;;;;;;;;;15.50;70.78;101585.66;1272494;23;658;-67
2023/03/20 02:20:12;;;;;;;;;;;;;;;15.51;70.51;101592.75;1274066;23;665;-67
2023/03/20 02:21:03;;;;;;;;;;;;;;;15.39;70.03;101599.88;1271511;23;629;-67
2023/03/20 02:21:53;;;;;;;;;;;;;;;15.36;70.97;101599.25;1271271;23;643;-67
2023/03/20 02:22:44;;;;;;;;;;;;;;;15.32;70.97;101592.38;1272275;23;658;-66
2023/03/20 02:23:34;;;;;;;;;;;;;;;15.32;70.96;101593.25;1272373;23;634;-66
2023/03/20 02:24:24;;;;;;;;;;;;;;;15.36;70.85;101589.38;1272505;23;694;-66
2023/03/20 02:25:15;;;;;;;;;;;;;;;15.40;70.62;101588.19;1272319;23;669;-66
2023/03/20 02:26:06;;;;;;;;;;;;;;;15.42;70.73;101585.34;1271463;23;610;-66
2023/03/20 02:26:56;;;;;;;;;;;;;;;15.45;70.67;101590.50;1271386;23;739;-65
2023/03/20 02:27:47;;;;;;;;;;;;;;;15.39;70.39;101596.34;1271172;23;669;-66
2023/03/20 02:28:37;;;;;;;;;;;;;;;15.34;70.79;101599.34;1272781;23;657;-66
2023/03/20 02:29:28;;;;;;;;;;;;;;;15.29;71.02;101588.94;1273371;23;681;-66
2023/03/20 02:30:18;;;;;;;;;;;;;;;15.33;70.90;101594.09;1272579;23;642;-66
2023/03/20 02:31:09;;;;;;;;;;;;;;;15.37;70.80;101591.09;1272371;23;673;-66
2023/03/20 02:32:00;;;;;;;;;;;;;;;15.39;71.11;101581.09;1272412;23;622;-66
2023/03/20 02:32:50;;;;;;;;;;;;;;;15.42;70.57;101588.03;1272302;23;633;-67
2023/03/20 02:33:41;;;;;;;;;;;;;;;15.41;70.45;101587.19;1272243;23;701;-67
2023/03/20 02:34:31;;;;;;;;;;;;;;;15.44;70.69;101588.78;1273455;23;751;-67
2023/03/20 02:35:21;;;;;;;;;;;;;;;15.44;70.67;101581.59;1272289;23;656;-66
2023/03/20 02:36:12;;;;;;;;;;;;;;;15.44;70.90;101586.09;1271914;23;673;-66
2023/03/20 02:37:02;;;;;;;;;;;;;;;15.45;70.91;101588.69;1274263;23;676;-66
2023/03/20 02:37:53;;;;;;;;;;;;;;;15.46;70.69;101586.84;1271626;23;657;-66
2023/03/20 02:38:43;;;;;;;;;;;;;;;15.48;70.45;101588.44;1274080;23;700;-66
2023/03/20 02:39:34;;;;;;;;;;;;;;;15.48;70.88;101588.44;1272284;23;678;-65
2023/03/20 02:40:24;;;;;;;;;;;;;;;15.48;70.45;101583.09;1272623;23;664;-66
2023/03/20 02:41:14;;;;;;;;;;;;;;;15.43;70.64;101584.38;1272301;23;653;-66
2023/03/20 02:42:05;;;;;;;;;;;;;;;15.41;70.76;101580.94;1271580;23;721;-66
2023/03/20 02:42:55;;;;;;;;;;;;;;;15.40;70.92;101582.81;1272525;23;665;-66
2023/03/20 02:43:46;;;;;;;;;;;;;;;15.42;70.78;101579.97;1272335;23;583;-67
2023/03/20 02:44:36;;;;;;;;;;;;;;;15.42;70.55;101580.84;1272327;23;618;-67
2023/03/20 02:45:27;;;;;;;;;;;;;;;15.44;70.77;101580.72;1272290;23;626;-67
2023/03/20 02:46:17;;;;;;;;;;;;;;;15.44;70.48;101578.91;1272110;23;654;-67
2023/03/20 02:47:08;;;;;;;;;;;;;;;15.44;70.78;101576.22;1272472;23;677;-67
2023/03/20 02:47:58;;;;;;;;;;;;;;;15.37;68.34;101568.75;1272241;23;693;-67
2023/03/20 02:48:48;;;;;;;;;;;;;;;15.18;68.58;101572.75;1270809;23;1942;-67
2023/03/20 02:49:39;;;;;;;;;;;;;;;15.18;71.16;101570.09;1271511;23;704;-67
2023/03/20 02:50:29;;;;;;;;;;;;;;;15.24;71.33;101564.25;1272162;23;645;-66
2023/03/20 02:51:21;;;;;;;;;;;;;;;15.26;70.98;101551.56;1271514;23;618;-67
2023/03/20 02:52:12;;;;;;;;;;;;;;;15.28;70.80;101546.09;1271300;23;653;-67
2023/03/20 02:53:05;;;;;;;;;;;;;;;15.28;70.75;101535.34;1271413;23;661;-67
2023/03/20 02:53:55;;;;;;;;;;;;;;;15.31;70.89;101537.81;1271412;23;649;-66
2023/03/20 02:54:46;;;;;;;;;;;;;;;15.37;70.63;101531.13;1271918;23;648;-65
2023/03/20 02:55:36;;;;;;;;;;;;;;;15.39;70.64;101527.38;1271849;23;641;-66
2023/03/20 02:56:27;;;;;;;;;;;;;;;15.42;70.49;101521.75;1272320;23;618;-66
2023/03/20 02:57:17;;;;;;;;;;;;;;;15.43;70.41;101520.78;1271849;23;621;-66
2023/03/20 02:58:08;;;;;;;;;;;;;;;15.45;70.63;101517.97;1272285;23;646;-66
2023/03/20 02:58:58;;;;;;;;;;;;;;;15.44;70.29;101517.13;1273915;23;625;-66
2023/03/20 02:59:49;;;;;;;;;;;;;;;15.45;70.11;101513.47;1271404;23;653;-66
2023/03/20 03:00:39;;;;;;;;;;;;;;;15.44;70.71;101510.88;1272652;23;645;-66
2023/03/20 03:01:30;;;;;;;;;;;;;;;15.43;70.51;101523.47;1272591;23;622;-66
2023/03/20 03:02:20;;;;;;;;;;;;;;;15.43;70.58;101520.78;1272504;23;696;-66
2023/03/20 03:03:11;;;;;;;;;;;;;;;15.45;70.27;101524.22;1273694;23;622;-65
2023/03/20 03:04:01;;;;;;;;;;;;;;;15.46;70.42;101523.25;1271955;23;665;-66
2023/03/20 03:04:52;;;;;;;;;;;;;;;15.49;70.57;101530.22;1272484;23;617;-66
2023/03/20 03:05:42;;;;;;;;;;;;;;;15.50;70.65;101532.78;1272706;23;694;-66
2023/03/20 03:06:33;;;;;;;;;;;;;;;15.47;70.30;101541.06;1272505;23;662;-66
2023/03/20 03:07:23;;;;;;;;;;;;;;;15.44;70.88;101543.97;1271601;23;705;-67
2023/03/20 03:08:13;;;;;;;;;;;;;;;15.39;70.87;101540.81;1272810;23;676;-67
2023/03/20 03:09:04;;;;;;;;;;;;;;;15.41;70.90;101537.97;1273408;23;1885;-67
2023/03/20 03:09:55;;;;;;;;;;;;;;;15.42;70.67;101540.53;1272476;23;661;-67
2023/03/20 03:10:45;;;;;;;;;;;;;;;15.44;70.70;101541.28;1272475;23;625;-67
2023/03/20 03:11:36;;;;;;;;;;;;;;;15.39;69.89;101540.81;1272178;23;654;-67
2023/03/20 03:12:26;;;;;;;;;;;;;;;15.35;70.95;101547.38;1271179;23;650;-66
2023/03/20 03:13:16;;;;;;;;;;;;;;;15.31;70.41;101545.00;1273154;23;673;-66
2023/03/20 03:14:07;;;;;;;;;;;;;;;15.30;69.99;101546.84;1273386;23;665;-66
2023/03/20 03:14:57;;;;;;;;;;;;;;;15.24;70.64;101547.28;1272314;23;572;-66
2023/03/20 03:15:48;;;;;;;;;;;;;;;15.19;69.65;101547.63;1272279;23;634;-66
2023/03/20 03:16:38;;;;;;;;;;;;;;;15.20;71.29;101546.66;1272406;23;629;-67
2023/03/20 03:17:29;;;;;;;;;;;;;;;15.24;70.79;101549.97;1271379;23;634;-67
2023/03/20 03:18:19;;;;;;;;;;;;;;;15.22;71.20;101559.97;1272361;23;642;-67
2023/03/20 03:19:09;;;;;;;;;;;;;;;15.19;71.17;101557.50;1273736;23;625;-67
2023/03/20 03:20:00;;;;;;;;;;;;;;;15.17;70.82;101554.09;1271730;23;691;-67
2023/03/20 03:20:50;;;;;;;;;;;;;;;15.24;71.21;101552.66;1271065;23;622;-67
2023/03/20 03:21:41;;;;;;;;;;;;;;;15.27;70.12;101549.75;1273133;23;669;-68
2023/03/20 03:22:33;;;;;;;;;;;;;;;15.29;70.81;101551.34;1273381;23;614;-67
2023/03/20 03:23:23;;;;;;;;;;;;;;;15.35;71.15;101543.81;1271649;23;670;-67
2023/03/20 03:24:14;;;;;;;;;;;;;;;15.38;70.75;101541.78;1271612;23;642;-67
2023/03/20 03:25:05;;;;;;;;;;;;;;;15.39;70.92;101540.81;1271975;23;650;-67
2023/03/20 03:25:56;;;;;;;;;;;;;;;15.39;70.64;101540.81;1271310;23;634;-68
2023/03/20 03:26:46;;;;;;;;;;;;;;;15.40;70.80;101541.66;1271578;23;610;-68
2023/03/20 03:27:37;;;;;;;;;;;;;;;15.40;70.73;101541.66;1272323;23;626;-67
2023/03/20 03:28:27;;;;;;;;;;;;;;;15.41;70.67;101538.81;1273763;23;677;-68
2023/03/20 03:29:18;;;;;;;;;;;;;;;15.42;70.97;101540.53;1272594;23;1929;-67
2023/03/20 03:30:09;;;;;;;;;;;;;;;15.42;70.71;101540.53;1271818;23;617;-67
2023/03/20 03:30:59;;;;;;;;;;;;;;;15.36;69.58;101537.47;1271864;23;633;-67
2023/03/20 03:31:50;;;;;;;;;;;;;;;15.29;70.99;101543.28;1272539;23;661;-67
2023/03/20 03:32:40;;;;;;;;;;;;;;;15.25;70.91;101540.94;1271491;23;783;-68
2023/03/20 03:33:31;;;;;;;;;;;;;;;15.23;71.37;101535.69;1272645;23;677;-67
2023/03/20 03:34:21;;;;;;;;;;;;;;;15.27;71.12;101534.50;1272892;23;650;-68
2023/03/20 03:35:11;;;;;;;;;;;;;;;15.26;71.11;101532.78;1274637;23;657;-68
2023/03/20 03:36:02;;;;;;;;;;;;;;;15.26;71.06;101535.47;1272849;23;641;-68
2023/03/20 03:36:52;;;;;;;;;;;;;;;15.26;70.92;101529.22;1274687;23;644;-68
2023/03/20 03:37:43;;;;;;;;;;;;;;;15.29;70.93;101537.06;1272816;23;638;-68
2023/03/20 03:38:33;;;;;;;;;;;;;;;15.27;70.00;101522.88;1272754;23;606;-68
2023/03/20 03:39:24;;;;;;;;;;;;;;;15.26;71.02;101526.53;1272616;23;673;-68
2023/03/20 03:40:14;;;;;;;;;;;;;;;15.29;71.12;101518.25;1272680;23;634;-68
2023/03/20 03:41:05;;;;;;;;;;;;;;;15.32;71.25;101515.34;1272578;23;652;-68
2023/03/20 03:41:55;;;;;;;;;;;;;;;15.33;70.89;101524.28;1272590;23;641;-68
2023/03/20 03:42:45;;;;;;;;;;;;;;;15.35;70.82;101523.19;1274331;23;684;-68
2023/03/20 03:43:36;;;;;;;;;;;;;;;15.32;70.85;101523.41;1272010;23;630;-68
2023/03/20 03:44:26;;;;;;;;;;;;;;;15.18;70.29;101529.81;1273064;23;673;-68
2023/03/20 03:45:17;;;;;;;;;;;;;;;15.14;70.17;101517.56;1271987;23;650;-68
2023/03/20 03:46:07;;;;;;;;;;;;;;;15.14;71.13;101522.09;1272915;23;645;-68
2023/03/20 03:46:58;;;;;;;;;;;;;;;15.07;70.49;101513.59;1273835;23;610;-67
2023/03/20 03:47:49;;;;;;;;;;;;;;;15.10;70.92;101510.72;1272569;23;642;-67
2023/03/20 03:48:39;;;;;;;;;;;;;;;15.09;70.26;101514.34;1272836;23;681;-67
2023/03/20 03:49:30;;;;;;;;;;;;;;;15.08;71.07;101509.09;1273797;23;673;-68
2023/03/20 03:50:20;;;;;;;;;;;;;;;15.12;71.17;101505.22;1272702;23;629;-68
2023/03/20 03:51:11;;;;;;;;;;;;;;;15.17;70.90;101501.25;1272643;23;654;-68
2023/03/20 03:52:01;;;;;;;;;;;;;;;15.22;70.57;101500.91;1272057;23;634;-68
2023/03/20 03:52:52;;;;;;;;;;;;;;;15.20;70.57;101500.16;1272449;23;622;-69
2023/03/20 03:53:42;;;;;;;;;;;;;;;15.20;71.30;101501.03;1272850;23;665;-69
2023/03/20 03:54:32;;;;;;;;;;;;;;;15.25;70.91;101501.53;1274677;23;665;-69
2023/03/20 03:55:23;;;;;;;;;;;;;;;15.26;70.72;101508.59;1274545;23;692;-69
2023/03/20 03:56:13;;;;;;;;;;;;;;;15.22;70.17;101500.91;1274459;23;650;-69
2023/03/20 03:57:04;;;;;;;;;;;;;;;15.23;70.82;101502.59;1271937;23;658;-69
2023/03/20 03:57:54;;;;;;;;;;;;;;;15.25;71.05;101497.97;1272656;23;622;-68
2023/03/20 03:58:44;;;;;;;;;;;;;;;15.26;70.90;101502.38;1274363;23;617;-68
2023/03/20 03:59:35;;;;;;;;;;;;;;;15.29;70.84;101499.47;1271860;23;713;-68
2023/03/20 04:00:26;;;;;;;;;;;;;;;15.25;70.91;101498.84;1271674;23;630;-68
2023/03/20 04:01:16;;;;;;;;;;;;;;;15.25;70.88;101509.56;1272129;23;653;-68
2023/03/20 04:02:07;;;;;;;;;;;;;;;15.29;70.79;101499.47;1274416;23;621;-68
2023/03/20 04:02:58;;;;;;;;;;;;;;;15.23;70.77;101498.09;1272095;23;650;-68
2023/03/20 04:03:48;;;;;;;;;;;;;;;15.24;70.69;101498.94;1272993;23;693;-68
2023/03/20 04:04:39;;;;;;;;;;;;;;;15.21;71.00;101493.81;1271768;23;622;-68
2023/03/20 04:05:33;;;;;;;;;;;;;;;15.24;70.97;101497.13;1272684;23;650;-68
2023/03/20 04:06:24;;;;;;;;;;;;;;;15.24;70.41;101493.56;1271789;23;650;-68
2023/03/20 04:07:15;;;;;;;;;;;;;;;15.26;71.18;101497.00;1272476;23;653;-68
2023/03/20 04:08:06;;;;;;;;;;;;;;;15.29;70.94;101496.78;1272695;23;638;-68
2023/03/20 04:08:56;;;;;;;;;;;;;;;15.22;70.23;101490.16;1271580;23;1884;-68
2023/03/20 04:09:47;;;;;;;;;;;;;;;15.18;70.54;101491.38;1271683;23;661;-68
2023/03/20 04:10:37;;;;;;;;;;;;;;;15.20;70.75;101495.66;1273634;23;759;-68
2023/03/20 04:11:28;;;;;;;;;;;;;;;15.17;70.89;101495.88;1271273;23;657;-68
2023/03/20 04:12:18;;;;;;;;;;;;;;;15.20;71.23;101492.97;1272725;23;637;-68
2023/03/20 04:13:09;;;;;;;;;;;;;;;15.25;70.83;101496.16;1271603;23;665;-68
2023/03/20 04:14:00;;;;;;;;;;;;;;;15.28;70.51;101492.38;1272526;23;662;-67
2023/03/20 04:14:50;;;;;;;;;;;;;;;15.28;70.74;101503.13;1271884;23;646;-67
2023/03/20 04:15:41;;;;;;;;;;;;;;;15.29;70.80;101502.16;1273709;23;738;-68
2023/03/20 04:16:31;;;;;;;;;;;;;;;15.19;70.42;101501.13;1272193;23;665;-68
2023/03/20 04:17:22;;;;;;;;;;;;;;;15.15;70.82;101492.44;1272567;23;618;-68
2023/03/20 04:18:12;;;;;;;;;;;;;;;15.18;71.28;101489.53;1271740;23;645;-68
2023/03/20 04:19:03;;;;;;;;;;;;;;;15.21;70.16;101488.47;1271738;23;673;-68
2023/03/20 04:19:53;;;;;;;;;;;;;;;15.11;70.87;101493.63;1271400;23;681;-68
2023/03/20 04:20:43;;;;;;;;;;;;;;;15.11;71.21;101499.00;1273206;23;778;-68
2023/03/20 04:21:34;;;;;;;;;;;;;;;15.13;71.02;101490.84;1273365;23;637;-68
2023/03/20 04:22:24;;;;;;;;;;;;;;;15.19;70.95;101498.44;1271975;23;607;-68
2023/03/20 04:23:15;;;;;;;;;;;;;;;15.22;71.00;101501.78;1272675;23;689;-68
2023/03/20 04:24:06;;;;;;;;;;;;;;;15.26;70.73;101502.38;1271998;23;654;-66
2023/03/20 04:24:57;;;;;;;;;;;;;;;15.24;70.56;101501.63;1271808;23;1260;-67
2023/03/20 04:25:47;;;;;;;;;;;;;;;15.13;70.17;101498.88;1272611;23;665;-67
2023/03/20 04:26:38;;;;;;;;;;;;;;;15.03;70.49;101501.41;1271668;23;633;-67